Cocoville, Louisiana
Current Conditions -  °F | °C
As of 1:53 PM on Friday 24 Oct 2014 (Local Time) from KESF Reporting Station
Clear Clear  
Wind Chill: 71°   Ceiling: Unl
Heat Index: 71°   Visibility: 10mi
Dew Point: 50°   Wind: 3mph
Humidity: 47%   Direction: NA
Pressure: 30.11"   Gusts: NA
Location:  31.0649°N, 92.0567°W
Report Text: KESF 241853Z AUTO VRB03KT 10SM CLR 22/10 A3011 RMK AO2 SLP194 T02170100
Loading
Personal Weather Stations






























Interactive Weather Map
Tropical Storm Tracking
New forecast layout! Learn more

10-Day Weather Forecast

Advertisements
Track Severe Weather on mobile